Time;durP1;ratioP1;P1;durP2;ratioP2;P2;SDS_P1;SDS_P2;PMS_P1;PMS_P2;Temp;Humidity;BMP_temperature;BMP_pressure;BME280_temperature;BME280_humidity;BME280_pressure;Samples;Min_cycle;Max_cycle;Signal;HPM_P1;HPM_P2
2022/11/12 00:00:43;;;;;;;12.38;8.45;;;7.00;99.90;;;;;;5017436;28;20073;-79
2022/11/12 00:03:09;;;;;;;16.42;9.68;;;7.00;99.90;;;;;;4998682;28;20072;-80
2022/11/12 00:05:35;;;;;;;15.07;8.98;;;7.00;99.90;;;;;;5017090;28;20262;-84
2022/11/12 00:08:01;;;;;;;17.63;10.55;;;7.10;99.90;;;;;;5017718;28;20490;-85
2022/11/12 00:10:27;;;;;;;17.88;10.18;;;7.10;99.90;;;;;;5014011;28;20426;-82
2022/11/12 00:12:54;;;;;;;16.92;11.02;;;7.10;99.90;;;;;;5012860;28;20485;-81
2022/11/12 00:15:19;;;;;;;19.95;12.45;;;7.20;99.90;;;;;;5000686;28;20432;-83
2022/11/12 00:17:45;;;;;;;21.38;14.30;;;7.20;99.90;;;;;;5016329;28;20650;-85
2022/11/12 00:20:11;;;;;;;24.25;14.85;;;7.30;99.90;;;;;;5014705;28;20041;-80
2022/11/12 00:22:37;;;;;;;20.60;14.10;;;7.30;99.90;;;;;;5014158;28;20037;-81
2022/11/12 00:25:03;;;;;;;24.40;16.33;;;7.40;99.90;;;;;;5012573;28;20037;-81
2022/11/12 00:27:31;;;;;;;28.05;16.38;;;7.50;99.90;;;;;;4998184;28;20897;-81
2022/11/12 00:29:56;;;;;;;26.88;17.30;;;7.50;99.90;;;;;;5016394;28;20044;-82
2022/11/12 00:32:22;;;;;;;20.73;13.75;;;7.50;99.90;;;;;;5014326;28;20033;-82
2022/11/12 00:34:47;;;;;;;12.48;8.65;;;7.50;99.90;;;;;;5013949;28;20033;-81
2022/11/12 00:37:13;;;;;;;11.90;8.20;;;7.40;99.90;;;;;;5016431;28;20049;-82
2022/11/12 00:39:39;;;;;;;13.98;8.93;;;7.30;99.90;;;;;;5017243;28;20056;-75
2022/11/12 00:42:04;;;;;;;11.75;7.13;;;7.30;99.90;;;;;;5016382;28;20095;-77
2022/11/12 00:44:30;;;;;;;9.88;7.53;;;7.30;99.90;;;;;;5007687;28;20037;-75
2022/11/12 00:46:56;;;;;;;13.05;8.18;;;7.20;99.90;;;;;;5012728;28;20038;-76
2022/11/12 00:49:22;;;;;;;11.32;8.00;;;7.00;99.90;;;;;;5009968;28;20134;-76
2022/11/12 00:51:48;;;;;;;14.25;8.85;;;6.90;99.90;;;;;;5010002;28;20037;-75
2022/11/12 00:54:14;;;;;;;10.73;7.57;;;6.90;99.90;;;;;;5009398;28;20014;-76
2022/11/12 00:56:39;;;;;;;11.75;7.82;;;6.90;99.90;;;;;;5008611;28;20108;-76
2022/11/12 00:59:05;;;;;;;10.98;7.28;;;6.90;99.90;;;;;;5007152;28;20393;-76
2022/11/12 01:01:31;;;;;;;13.10;7.38;;;7.00;99.90;;;;;;5007487;28;20034;-76
2022/11/12 01:03:58;;;;;;;11.55;7.68;;;7.10;99.90;;;;;;5006743;28;20605;-76
2022/11/12 01:06:24;;;;;;;12.13;8.02;;;7.10;99.90;;;;;;5006966;28;20288;-76
2022/11/12 01:08:51;;;;;;;12.55;7.95;;;7.20;99.90;;;;;;5007196;28;20045;-76
2022/11/12 01:11:25;;;;;;;12.55;8.30;;;7.20;99.90;;;;;;5003775;28;20100;-75
2022/11/12 01:14:00;;;;;;;13.57;8.75;;;7.20;99.90;;;;;;5007328;28;20029;-75
2022/11/12 01:16:29;;;;;;;13.55;8.77;;;7.30;99.90;;;;;;5006815;28;20038;-78
2022/11/12 01:18:57;;;;;;;10.43;8.18;;;7.30;99.90;;;;;;5004161;28;20506;-76
2022/11/12 01:21:26;;;;;;;14.35;8.50;;;7.30;99.90;;;;;;5006167;28;20506;-76
2022/11/12 01:23:52;;;;;;;13.77;10.13;;;7.30;99.90;;;;;;5008093;28;20040;-78
2022/11/12 01:26:20;;;;;;;16.50;10.52;;;7.40;99.90;;;;;;5005952;28;20050;-76
2022/11/12 01:28:46;;;;;;;15.57;10.82;;;7.50;99.90;;;;;;5006653;28;20033;-76
2022/11/12 01:31:13;;;;;;;16.55;10.68;;;7.60;99.90;;;;;;5007272;28;20037;-76
2022/11/12 01:33:40;;;;;;;10.68;7.35;;;7.50;99.90;;;;;;5007314;28;20045;-76
2022/11/12 01:36:06;;;;;;;12.77;8.25;;;7.40;99.90;;;;;;5012179;28;20445;-76
2022/11/12 01:38:36;;;;;;;11.20;7.78;;;7.30;99.90;;;;;;5007940;28;20658;-76
2022/11/12 01:41:03;;;;;;;14.13;8.85;;;7.20;99.90;;;;;;5005153;28;20268;-76
2022/11/12 01:43:28;;;;;;;12.35;9.18;;;7.10;99.90;;;;;;5007085;28;20095;-78
2022/11/12 01:45:55;;;;;;;14.10;9.85;;;7.10;99.90;;;;;;5008002;28;20037;-77
2022/11/12 01:48:28;;;;;;;13.05;9.98;;;7.10;99.90;;;;;;5008776;28;20037;-77
2022/11/12 01:50:55;;;;;;;13.95;9.88;;;7.20;99.90;;;;;;5007240;28;20029;-77
2022/11/12 01:53:24;;;;;;;13.15;9.05;;;7.30;99.90;;;;;;5007053;28;20065;-76
2022/11/12 01:55:51;;;;;;;11.52;9.18;;;7.30;99.90;;;;;;5007076;28;20060;-76
2022/11/12 01:58:20;;;;;;;12.70;9.98;;;7.40;99.90;;;;;;4995238;28;20120;-76
2022/11/12 02:00:47;;;;;;;10.70;7.97;;;7.40;99.90;;;;;;5005928;28;20041;-77
2022/11/12 02:03:18;;;;;;;12.25;9.45;;;7.40;99.90;;;;;;5009204;28;20081;-76
2022/11/12 02:05:46;;;;;;;15.83;10.27;;;7.50;99.90;;;;;;5010836;28;20129;-76
2022/11/12 02:08:13;;;;;;;11.48;9.68;;;7.50;99.90;;;;;;5013160;28;20030;-77
2022/11/12 02:10:39;;;;;;;13.73;9.20;;;7.40;99.90;;;;;;5012474;28;20136;-77
2022/11/12 02:15:51;;;;;;;12.25;8.88;;;7.30;99.90;;;;;;5011857;28;20052;-76
2022/11/12 02:18:16;;;;;;;10.88;7.47;;;7.30;99.90;;;;;;4995927;28;20034;-76
2022/11/12 02:20:42;;;;;;;9.45;6.80;;;7.30;99.90;;;;;;5013537;28;20042;-77
2022/11/12 02:23:08;;;;;;;11.82;7.07;;;7.20;99.90;;;;;;5011344;28;20053;-76
2022/11/12 02:25:34;;;;;;;10.40;6.22;;;7.10;99.90;;;;;;5012571;28;20047;-76
2022/11/12 02:28:02;;;;;;;10.55;6.85;;;7.10;99.90;;;;;;5010573;28;20073;-77
2022/11/12 02:30:39;;;;;;;13.05;7.43;;;6.90;99.90;;;;;;5011518;28;20080;-77
2022/11/12 02:33:04;;;;;;;11.63;8.13;;;7.00;99.90;;;;;;5014109;28;20491;-77
2022/11/12 02:35:31;;;;;;;11.82;8.20;;;7.00;99.90;;;;;;5017185;28;20042;-77
2022/11/12 02:37:56;;;;;;;12.65;8.43;;;7.00;99.90;;;;;;5016109;28;20041;-77
2022/11/12 02:40:22;;;;;;;13.05;8.45;;;6.90;99.90;;;;;;5016454;28;20041;-77
2022/11/12 02:42:48;;;;;;;12.80;8.23;;;6.80;99.90;;;;;;4998914;28;20030;-78
2022/11/12 02:45:14;;;;;;;9.85;6.20;;;6.80;99.90;;;;;;5016341;28;20037;-77
2022/11/12 02:47:40;;;;;;;7.63;5.88;;;6.80;99.90;;;;;;5014631;28;20029;-77
2022/11/12 02:50:06;;;;;;;8.70;6.70;;;6.70;99.90;;;;;;5015598;28;20415;-77
2022/11/12 02:52:32;;;;;;;11.00;7.15;;;6.60;99.90;;;;;;5021585;28;20049;-77
2022/11/12 02:54:57;;;;;;;10.13;6.85;;;6.60;99.90;;;;;;5016671;28;20037;-76
2022/11/12 02:57:23;;;;;;;7.50;5.30;;;6.50;99.90;;;;;;5016345;28;20406;-76
2022/11/12 02:59:49;;;;;;;7.60;5.00;;;6.50;99.90;;;;;;5015429;28;20034;-76
2022/11/12 03:02:14;;;;;;;13.07;5.07;;;6.50;99.90;;;;;;5015907;28;20413;-76
2022/11/12 03:04:40;;;;;;;7.63;5.82;;;6.60;99.90;;;;;;5017914;28;20034;-77
2022/11/12 03:07:05;;;;;;;21.40;7.15;;;6.60;99.90;;;;;;5014194;28;20033;-76
2022/11/12 03:09:31;;;;;;;16.42;7.80;;;6.60;99.90;;;;;;5021074;28;20044;-77
2022/11/12 03:11:57;;;;;;;18.70;10.30;;;6.60;99.90;;;;;;5018560;28;20299;-77
2022/11/12 03:14:23;;;;;;;16.30;9.40;;;6.80;99.90;;;;;;5016019;28;20116;-77
2022/11/12 03:16:48;;;;;;;20.92;12.23;;;6.80;99.90;;;;;;5011844;28;20498;-77
2022/11/12 03:19:14;;;;;;;20.90;11.80;;;6.80;99.90;;;;;;5017411;28;20056;-77
2022/11/12 03:21:39;;;;;;;27.08;13.75;;;6.80;99.90;;;;;;5015419;28;20058;-78
2022/11/12 03:24:05;;;;;;;19.10;11.93;;;6.80;99.90;;;;;;5016944;28;20041;-78
2022/11/12 03:26:30;;;;;;;16.98;8.52;;;6.80;99.90;;;;;;5016839;28;20045;-78
2022/11/12 03:28:56;;;;;;;12.30;8.45;;;6.60;99.90;;;;;;5016377;28;20102;-78
2022/11/12 03:31:22;;;;;;;9.38;6.13;;;6.60;99.90;;;;;;5012025;28;20033;-78
2022/11/12 03:33:47;;;;;;;8.95;4.78;;;6.40;99.90;;;;;;5021932;28;20841;-77
2022/11/12 03:36:13;;;;;;;11.55;4.70;;;6.30;99.90;;;;;;5015841;28;20517;-78
2022/11/12 03:38:38;;;;;;;17.33;4.72;;;6.20;99.90;;;;;;5016854;28;20060;-77
2022/11/12 03:41:04;;;;;;;11.05;6.20;;;6.10;99.90;;;;;;5015464;28;20041;-78
2022/11/12 03:43:30;;;;;;;9.60;6.10;;;6.00;99.90;;;;;;5017751;28;20037;-77
2022/11/12 03:45:56;;;;;;;10.90;5.15;;;6.00;99.90;;;;;;5012562;28;20073;-78
2022/11/12 03:48:21;;;;;;;11.07;5.95;;;5.90;99.90;;;;;;5015599;28;20049;-78
2022/11/12 03:50:47;;;;;;;18.70;6.20;;;5.80;99.90;;;;;;5012149;28;20067;-76
2022/11/12 03:53:12;;;;;;;9.93;6.90;;;5.90;99.90;;;;;;5014466;28;20044;-77
2022/11/12 03:55:38;;;;;;;11.90;7.60;;;5.90;99.90;;;;;;5000236;28;20044;-77
2022/11/12 03:58:04;;;;;;;42.33;24.45;;;5.90;99.90;;;;;;5012795;28;20041;-77
2022/11/12 04:00:29;;;;;;;26.30;17.25;;;5.90;99.90;;;;;;5017303;28;20056;-77
2022/11/12 04:02:55;;;;;;;31.88;17.55;;;6.00;99.90;;;;;;5012821;28;20037;-76
2022/11/12 04:10:59;;;;;;;35.55;7.30;;;6.00;99.90;;;;;;5011176;28;20172;-76
2022/11/12 04:13:28;;;;;;;15.15;7.53;;;6.00;99.90;;;;;;5013005;28;20636;-76
2022/11/12 04:21:50;;;;;;;22.95;8.18;;;5.90;99.90;;;;;;5015889;28;20179;-77
2022/11/12 04:27:25;;;;;;;12.02;8.13;;;6.00;99.90;;;;;;5014164;28;20110;-76
2022/11/12 04:32:39;;;;;;;29.05;20.25;;;6.10;99.90;;;;;;5016198;28;20064;-77
2022/11/12 04:35:06;;;;;;;29.75;21.30;;;6.20;99.90;;;;;;5017605;28;20053;-77
2022/11/12 04:37:46;;;;;;;24.77;15.27;;;6.30;99.90;;;;;;5013432;28;20041;-77
2022/11/12 04:46:01;;;;;;;33.67;20.83;;;6.40;99.90;;;;;;5000578;28;20513;-77
2022/11/12 04:48:27;;;;;;;29.58;18.00;;;6.50;99.90;;;;;;5016170;28;20402;-77
2022/11/12 04:50:56;;;;;;;26.88;16.10;;;6.50;99.90;;;;;;5016466;28;20036;-77
2022/11/12 04:53:22;;;;;;;34.40;17.30;;;6.60;99.90;;;;;;5015550;28;20496;-77
2022/11/12 04:55:52;;;;;;;27.20;15.75;;;6.60;99.90;;;;;;5013835;28;20045;-77
2022/11/12 04:58:18;;;;;;;24.80;14.40;;;6.60;99.90;;;;;;5013335;28;20042;-77
2022/11/12 05:00:44;;;;;;;26.10;14.52;;;6.60;99.90;;;;;;5009464;28;20067;-77
2022/11/12 05:03:10;;;;;;;22.55;14.63;;;6.60;99.90;;;;;;5016126;28;20088;-76
2022/11/12 05:05:35;;;;;;;34.78;15.80;;;6.60;99.90;;;;;;5013872;28;20450;-76
2022/11/12 05:08:02;;;;;;;24.88;15.20;;;6.70;99.90;;;;;;5014661;28;20500;-77
2022/11/12 05:10:29;;;;;;;80.95;15.88;;;6.70;99.90;;;;;;4995470;28;20601;-77
2022/11/12 05:12:54;;;;;;;36.47;13.82;;;6.70;99.90;;;;;;5017668;28;20034;-77
2022/11/12 05:15:20;;;;;;;42.83;12.95;;;6.70;99.90;;;;;;5012941;28;20060;-77
2022/11/12 05:17:46;;;;;;;27.80;12.85;;;6.70;99.90;;;;;;5013387;28;20033;-77
2022/11/12 05:20:13;;;;;;;46.35;11.82;;;6.70;99.90;;;;;;5013119;28;20041;-77
2022/11/12 05:22:39;;;;;;;112.93;12.90;;;6.70;99.90;;;;;;5015848;28;20109;-77
2022/11/12 05:25:06;;;;;;;41.20;12.57;;;6.70;99.90;;;;;;5015598;28;20072;-77
2022/11/12 05:27:33;;;;;;;55.25;14.00;;;6.70;99.90;;;;;;5011374;28;20050;-77
2022/11/12 05:29:58;;;;;;;45.88;14.13;;;6.60;99.90;;;;;;5013834;28;20651;-78
2022/11/12 05:32:24;;;;;;;43.90;13.90;;;6.60;99.90;;;;;;5013597;28;20038;-77
2022/11/12 05:34:49;;;;;;;58.85;19.17;;;6.70;99.90;;;;;;5012271;28;20422;-77
2022/11/12 05:37:15;;;;;;;75.47;14.07;;;6.80;99.90;;;;;;5016900;28;20168;-77
2022/11/12 05:39:41;;;;;;;55.55;13.38;;;6.80;99.90;;;;;;5012747;28;20057;-78
2022/11/12 05:42:07;;;;;;;27.85;13.50;;;6.80;99.90;;;;;;5015303;28;20038;-78
2022/11/12 05:44:32;;;;;;;25.30;12.27;;;6.90;99.90;;;;;;5018712;28;20095;-77
2022/11/12 05:46:58;;;;;;;21.55;12.75;;;6.90;99.90;;;;;;5011909;28;20064;-78
2022/11/12 05:49:24;;;;;;;24.23;14.90;;;7.00;99.90;;;;;;5015066;28;20042;-77
2022/11/12 05:51:50;;;;;;;66.32;22.67;;;7.10;99.90;;;;;;5016090;28;20485;-77
2022/11/12 05:54:16;;;;;;;111.05;27.73;;;7.10;99.90;;;;;;5015758;28;20049;-78
2022/11/12 05:56:42;;;;;;;70.50;23.67;;;7.10;99.90;;;;;;5012965;28;20847;-78
2022/11/12 05:59:09;;;;;;;102.00;26.27;;;7.00;99.90;;;;;;5013233;28;20053;-78
2022/11/12 06:01:42;;;;;;;67.22;20.05;;;7.00;99.90;;;;;;4986736;28;20053;-77
2022/11/12 06:04:09;;;;;;;64.93;20.88;;;6.90;99.90;;;;;;4989867;28;20376;-79
2022/11/12 06:06:34;;;;;;;45.45;19.73;;;6.90;99.90;;;;;;5010522;28;20049;-78
2022/11/12 06:09:00;;;;;;;66.70;18.15;;;7.00;99.90;;;;;;5013041;28;20041;-78
2022/11/12 06:11:26;;;;;;;62.60;12.82;;;7.00;99.90;;;;;;5012877;28;20045;-78
2022/11/12 06:13:51;;;;;;;42.88;12.52;;;6.90;99.90;;;;;;5012334;28;20044;-77
2022/11/12 06:16:17;;;;;;;33.80;13.32;;;6.90;99.90;;;;;;5011270;28;20671;-78
2022/11/12 06:18:42;;;;;;;50.80;13.02;;;6.90;99.90;;;;;;5016070;28;20056;-78
2022/11/12 06:21:18;;;;;;;23.42;12.70;;;6.90;99.90;;;;;;5010550;28;20046;-78
2022/11/12 06:23:49;;;;;;;44.47;12.55;;;6.90;99.90;;;;;;5013028;28;20042;-78
2022/11/12 06:26:14;;;;;;;39.65;12.10;;;7.00;99.90;;;;;;5013059;28;20118;-78
2022/11/12 06:28:40;;;;;;;33.67;13.80;;;6.90;99.90;;;;;;5010571;28;20041;-77
2022/11/12 06:31:06;;;;;;;32.55;12.02;;;6.80;99.90;;;;;;5010791;28;20095;-77
2022/11/12 06:33:31;;;;;;;50.22;14.35;;;6.90;99.90;;;;;;4996086;28;20571;-77
2022/11/12 06:36:01;;;;;;;55.53;13.73;;;6.90;99.90;;;;;;5013396;28;20141;-78
2022/11/12 06:38:46;;;;;;;63.33;13.38;;;6.90;99.90;;;;;;5020144;28;20075;-77
2022/11/12 06:41:12;;;;;;;45.42;13.35;;;6.90;99.90;;;;;;5016698;28;20121;-78
2022/11/12 06:43:38;;;;;;;30.98;13.00;;;6.90;99.90;;;;;;5013751;28;20030;-77
2022/11/12 06:46:07;;;;;;;22.38;10.98;;;6.90;99.90;;;;;;5015149;28;20042;-77
2022/11/12 06:48:33;;;;;;;47.63;11.95;;;7.00;99.90;;;;;;5013192;28;20572;-78
2022/11/12 06:51:05;;;;;;;43.08;11.98;;;7.00;99.90;;;;;;5022438;28;20116;-77
2022/11/12 06:53:31;;;;;;;21.42;11.82;;;6.90;99.90;;;;;;5020207;28;20068;-77
2022/11/12 06:56:01;;;;;;;45.20;14.02;;;7.00;99.90;;;;;;5015707;28;20073;-77
2022/11/12 06:58:27;;;;;;;25.33;12.93;;;7.00;99.90;;;;;;5012425;28;20541;-77
2022/11/12 07:00:52;;;;;;;32.40;12.63;;;7.10;99.90;;;;;;5011363;28;20053;-78
2022/11/12 07:03:18;;;;;;;25.88;12.82;;;7.10;99.90;;;;;;5011674;28;20037;-77
2022/11/12 07:05:43;;;;;;;26.60;12.95;;;7.10;99.90;;;;;;5016041;28;20033;-78
2022/11/12 07:08:09;;;;;;;22.42;12.30;;;7.10;99.90;;;;;;5013629;28;20038;-78
2022/11/12 07:10:34;;;;;;;14.57;12.45;;;7.20;99.90;;;;;;4990681;28;20041;-77
2022/11/12 07:13:00;;;;;;;28.55;14.45;;;7.30;99.90;;;;;;5004408;28;20171;-77
2022/11/12 07:15:26;;;;;;;25.52;13.07;;;7.40;99.90;;;;;;5004585;28;21821;-76
2022/11/12 07:17:51;;;;;;;18.92;13.73;;;7.40;99.90;;;;;;4994141;28;20049;-76
2022/11/12 07:20:17;;;;;;;21.35;12.63;;;7.40;99.90;;;;;;5007152;28;20530;-78
2022/11/12 07:22:43;;;;;;;18.60;13.00;;;7.40;99.90;;;;;;5018398;28;20171;-78
2022/11/12 07:25:08;;;;;;;18.88;12.65;;;7.50;99.90;;;;;;5012664;28;20095;-79
2022/11/12 07:27:34;;;;;;;13.27;11.88;;;7.60;99.90;;;;;;4984174;28;20046;-78
2022/11/12 07:29:59;;;;;;;18.77;14.60;;;7.60;99.90;;;;;;4991689;28;20484;-78
2022/11/12 07:32:25;;;;;;;18.15;16.20;;;7.70;99.90;;;;;;5005174;28;20041;-78
2022/11/12 07:34:51;;;;;;;33.88;30.30;;;7.80;99.90;;;;;;5007187;28;20029;-78
2022/11/12 07:37:16;;;;;;;22.08;17.50;;;7.80;99.90;;;;;;5012808;28;21458;-79
2022/11/12 07:39:42;;;;;;;14.50;12.85;;;7.90;99.90;;;;;;5010705;28;20070;-81
2022/11/12 07:42:07;;;;;;;12.98;11.57;;;7.90;99.90;;;;;;5012321;28;20057;-79
2022/11/12 07:44:33;;;;;;;14.38;11.77;;;7.90;99.90;;;;;;5006366;28;20045;-84
2022/11/12 07:46:58;;;;;;;14.30;12.85;;;8.00;99.90;;;;;;5006811;28;20041;-81
2022/11/12 07:49:24;;;;;;;14.05;12.55;;;8.00;99.90;;;;;;5004154;28;20471;-81
2022/11/12 07:51:49;;;;;;;13.45;12.02;;;8.00;99.90;;;;;;5006058;28;20029;-81
2022/11/12 07:54:15;;;;;;;13.65;11.38;;;8.10;99.90;;;;;;5009681;28;20426;-83
2022/11/12 07:56:40;;;;;;;15.20;11.55;;;8.20;99.90;;;;;;5013894;28;20030;-87
2022/11/12 07:59:06;;;;;;;12.55;11.32;;;8.10;99.90;;;;;;5011370;28;20657;-85
2022/11/12 08:01:40;;;;;;;12.70;11.40;;;8.10;99.90;;;;;;5013748;28;20407;-84
2022/11/12 08:04:08;;;;;;;12.32;11.13;;;8.10;99.90;;;;;;5012565;28;20045;-84
2022/11/12 08:06:34;;;;;;;23.77;15.77;;;8.20;99.90;;;;;;5015309;28;20057;-84
2022/11/12 08:09:01;;;;;;;18.27;14.70;;;8.20;99.90;;;;;;5020205;28;20074;-85
2022/11/12 08:11:27;;;;;;;13.82;11.18;;;8.30;99.90;;;;;;5014864;28;20061;-85
2022/11/12 08:13:53;;;;;;;14.98;11.00;;;8.30;99.90;;;;;;5015378;28;20667;-84
2022/11/12 08:16:19;;;;;;;17.35;11.73;;;8.30;99.90;;;;;;5010631;28;20026;-85
2022/11/12 08:18:45;;;;;;;15.40;11.93;;;8.40;99.90;;;;;;5012644;28;20049;-84
2022/11/12 08:21:13;;;;;;;14.10;11.30;;;8.40;99.90;;;;;;5011013;28;20406;-86
2022/11/12 08:23:40;;;;;;;13.18;11.43;;;8.40;99.90;;;;;;5018311;28;20064;-85
2022/11/12 08:26:07;;;;;;;13.43;12.02;;;8.40;99.90;;;;;;5010812;28;20066;-85
2022/11/12 08:28:35;;;;;;;23.02;11.75;;;8.40;99.90;;;;;;5016347;28;20026;-86
2022/11/12 08:31:06;;;;;;;18.45;12.93;;;8.40;99.90;;;;;;5021160;28;20506;-86
2022/11/12 08:33:32;;;;;;;19.10;13.27;;;8.50;99.90;;;;;;5017530;28;20085;-85
2022/11/12 08:36:01;;;;;;;14.50;12.35;;;8.50;99.90;;;;;;5015957;28;20034;-85
2022/11/12 08:38:26;;;;;;;14.48;12.45;;;8.50;99.90;;;;;;5015294;28;20056;-84
2022/11/12 08:40:52;;;;;;;19.45;12.63;;;8.50;99.90;;;;;;5015696;28;20045;-84
2022/11/12 08:43:17;;;;;;;43.55;34.75;;;8.40;99.90;;;;;;5016826;28;20068;-84
2022/11/12 08:45:43;;;;;;;45.90;23.73;;;8.50;99.90;;;;;;5015989;28;20029;-84
2022/11/12 08:48:13;;;;;;;34.70;30.15;;;8.50;99.90;;;;;;5015964;28;20038;-84
2022/11/12 08:50:40;;;;;;;19.33;16.40;;;8.40;99.90;;;;;;5009544;28;20128;-70
2022/11/12 08:53:09;;;;;;;34.15;13.75;;;8.50;99.90;;;;;;5005444;28;20021;-85
2022/11/12 08:55:35;;;;;;;26.35;13.98;;;8.50;99.90;;;;;;4999517;28;20034;-85
2022/11/12 08:58:01;;;;;;;30.45;13.35;;;8.50;99.90;;;;;;5002768;28;20518;-79
2022/11/12 09:00:36;;;;;;;26.35;13.30;;;8.50;99.90;;;;;;5003978;28;20049;-81
2022/11/12 09:03:04;;;;;;;18.88;12.75;;;8.40;99.90;;;;;;5006322;28;20061;-80
2022/11/12 09:05:30;;;;;;;77.95;27.02;;;8.40;99.90;;;;;;5005808;28;20510;-78
2022/11/12 09:08:04;;;;;;;19.48;13.82;;;8.40;99.90;;;;;;5004537;28;20045;-80
2022/11/12 09:10:30;;;;;;;49.97;20.13;;;8.50;99.90;;;;;;5002737;28;20038;-80
2022/11/12 09:12:56;;;;;;;39.35;15.18;;;8.50;99.90;;;;;;5002141;28;20037;-81
2022/11/12 09:15:23;;;;;;;25.60;14.15;;;8.50;99.90;;;;;;5002189;28;20056;-81
2022/11/12 09:17:57;;;;;;;23.38;13.25;;;8.50;99.90;;;;;;5005282;28;20044;-81
2022/11/12 09:20:24;;;;;;;27.10;17.75;;;8.60;99.90;;;;;;5004326;28;20049;-80
2022/11/12 09:22:51;;;;;;;54.38;14.13;;;8.70;99.90;;;;;;5006597;28;20096;-80
2022/11/12 09:25:17;;;;;;;52.50;13.23;;;8.80;99.90;;;;;;5004944;28;20034;-80
2022/11/12 09:27:43;;;;;;;42.13;14.55;;;8.70;99.90;;;;;;5005328;28;20045;-80
2022/11/12 09:30:09;;;;;;;32.40;14.32;;;8.70;99.90;;;;;;4989483;28;20107;-80
2022/11/12 09:32:34;;;;;;;25.48;19.88;;;8.70;99.90;;;;;;4971279;28;20040;-80
2022/11/12 09:35:00;;;;;;;47.67;20.85;;;8.60;99.90;;;;;;5007470;28;20033;-76
2022/11/12 09:37:26;;;;;;;34.90;22.35;;;8.80;99.90;;;;;;5003576;28;20588;-85
2022/11/12 09:39:51;;;;;;;22.15;16.60;;;8.80;99.90;;;;;;4999896;28;20127;-83
2022/11/12 09:42:21;;;;;;;25.63;16.55;;;9.00;99.90;;;;;;5001208;28;20053;-83
2022/11/12 09:45:02;;;;;;;22.92;16.42;;;9.20;99.90;;;;;;5001297;28;20156;-84
2022/11/12 09:47:56;;;;;;;26.35;20.40;;;9.20;99.90;;;;;;4999732;28;20079;-86
2022/11/12 09:50:29;;;;;;;48.53;31.52;;;9.40;99.90;;;;;;4993840;28;20045;-83
2022/11/12 09:53:12;;;;;;;21.10;16.48;;;9.50;99.90;;;;;;5005564;28;20052;-79
2022/11/12 09:55:42;;;;;;;19.95;16.25;;;9.60;99.90;;;;;;5002255;28;20367;-79
2022/11/12 09:58:13;;;;;;;18.77;15.65;;;9.70;99.90;;;;;;5002674;28;20038;-78
2022/11/12 10:00:43;;;;;;;22.52;16.30;;;9.80;99.90;;;;;;5003771;28;20037;-78
2022/11/12 10:03:36;;;;;;;18.52;15.82;;;9.90;99.90;;;;;;4982704;28;20029;-79
2022/11/12 10:06:04;;;;;;;19.85;15.80;;;10.00;99.90;;;;;;4984668;28;20050;-80
2022/11/12 10:08:45;;;;;;;19.90;16.10;;;10.00;99.90;;;;;;5010535;28;20876;-80
2022/11/12 10:12:30;;;;;;;22.40;17.05;;;10.00;99.90;;;;;;5004754;28;20053;-80
2022/11/12 10:14:52;;;;;;;19.20;16.13;;;10.10;99.90;;;;;;5001311;28;20045;-80
2022/11/12 10:17:49;;;;;;;24.38;17.75;;;10.00;99.90;;;;;;5012381;28;20513;-79
2022/11/12 10:20:24;;;;;;;24.20;18.85;;;10.10;99.90;;;;;;5011845;28;20042;-80
2022/11/12 10:23:01;;;;;;;19.63;16.50;;;10.20;99.90;;;;;;5018253;28;20148;-79
2022/11/12 10:25:27;;;;;;;18.42;14.80;;;10.20;99.90;;;;;;5020012;28;20590;-80
2022/11/12 10:27:54;;;;;;;19.90;16.30;;;10.30;99.90;;;;;;5020675;28;20048;-80
2022/11/12 10:30:23;;;;;;;22.90;16.50;;;10.30;99.90;;;;;;5021984;28;20059;-79
2022/11/12 10:32:50;;;;;;;23.45;17.50;;;10.40;99.90;;;;;;5016320;28;20053;-80
2022/11/12 10:35:19;;;;;;;24.52;18.17;;;10.30;99.90;;;;;;5015213;28;21211;-79
2022/11/12 10:37:47;;;;;;;18.45;15.77;;;10.40;99.90;;;;;;5016846;28;20042;-79
2022/11/12 10:40:33;;;;;;;22.48;18.50;;;10.40;99.90;;;;;;5015879;28;20037;-79
2022/11/12 10:42:58;;;;;;;23.30;19.58;;;10.40;99.90;;;;;;4996222;28;20776;-80
2022/11/12 10:45:25;;;;;;;18.60;16.25;;;10.40;99.90;;;;;;4994212;28;20238;-80
2022/11/12 10:47:50;;;;;;;20.58;17.17;;;10.40;99.90;;;;;;5016507;28;20061;-79
2022/11/12 10:50:40;;;;;;;19.83;16.98;;;10.40;99.90;;;;;;5024913;28;20614;-80
2022/11/12 10:53:10;;;;;;;20.73;16.70;;;10.40;99.90;;;;;;5016748;28;20034;-80
2022/11/12 10:55:38;;;;;;;19.70;15.93;;;10.40;99.90;;;;;;5021678;28;20601;-80
2022/11/12 10:58:09;;;;;;;19.98;16.48;;;10.50;99.90;;;;;;5020074;28;20045;-80
2022/11/12 11:00:37;;;;;;;20.30;16.42;;;10.50;99.90;;;;;;5013085;28;20053;-75
2022/11/12 11:03:15;;;;;;;22.55;17.60;;;10.50;99.90;;;;;;5012555;28;20061;-78
2022/11/12 11:05:58;;;;;;;19.92;16.33;;;10.60;99.90;;;;;;5012174;28;20533;-80
2022/11/12 11:08:41;;;;;;;20.67;16.48;;;10.70;99.90;;;;;;5014925;28;20045;-79
2022/11/12 11:11:16;;;;;;;22.00;18.65;;;10.80;99.90;;;;;;4994769;28;20045;-80
2022/11/12 11:13:43;;;;;;;18.23;15.30;;;10.90;99.90;;;;;;4997708;28;20104;-80
2022/11/12 11:16:26;;;;;;;18.70;16.63;;;11.00;99.90;;;;;;4995124;28;20536;-81
2022/11/12 11:18:58;;;;;;;18.70;15.40;;;11.10;99.90;;;;;;5003630;28;20041;-77
2022/11/12 11:21:33;;;;;;;;;;;11.20;99.90;;;;;;5010174;28;20037;-81
2022/11/12 11:24:13;;;;;;;19.63;14.32;;;11.30;99.90;;;;;;5005490;28;20034;-78
2022/11/12 11:26:57;;;;;;;17.83;14.13;;;11.40;99.90;;;;;;5002930;28;20996;-78
2022/11/12 11:30:03;;;;;;;16.75;14.00;;;11.50;99.90;;;;;;5008421;28;20033;-78
2022/11/12 11:32:50;;;;;;;46.13;25.83;;;11.60;99.90;;;;;;5006616;28;20046;-80
2022/11/12 11:35:33;;;;;;;20.40;14.95;;;11.70;99.90;;;;;;5008759;28;20435;-75
2022/11/12 11:38:24;;;;;;;14.95;13.35;;;11.80;99.90;;;;;;5007168;28;20758;-77
2022/11/12 11:40:52;;;;;;;14.45;12.13;;;11.90;99.90;;;;;;5004102;28;20140;-77
2022/11/12 11:43:41;;;;;;;16.23;14.02;;;12.00;99.90;;;;;;5004912;28;20170;-78
2022/11/12 11:46:38;;;;;;;17.95;14.30;;;12.10;99.90;;;;;;5002000;28;20088;-76
2022/11/12 11:49:36;;;;;;;18.98;14.00;;;12.20;99.90;;;;;;5011971;28;20072;-76
2022/11/12 11:52:21;;;;;;;16.92;13.50;;;12.20;99.90;;;;;;5009690;28;20233;-77
2022/11/12 11:54:58;;;;;;;17.70;13.90;;;12.40;99.90;;;;;;5002148;28;20030;-76
2022/11/12 11:58:09;;;;;;;19.02;12.98;;;12.40;99.90;;;;;;5003846;28;20735;-76
2022/11/12 12:00:46;;;;;;;16.38;13.07;;;12.50;99.90;;;;;;5008201;28;20054;-77
2022/11/12 12:03:38;;;;;;;21.63;12.57;;;12.60;99.90;;;;;;5005940;28;20038;-77
2022/11/12 12:06:20;;;;;;;18.90;13.15;;;12.70;99.90;;;;;;5002692;28;20033;-77
2022/11/12 12:09:02;;;;;;;19.42;13.15;;;12.70;99.90;;;;;;4991860;28;20087;-77
2022/11/12 12:11:50;;;;;;;17.85;13.48;;;12.70;99.90;;;;;;5002554;28;20148;-77
2022/11/12 12:14:26;;;;;;;14.38;11.55;;;12.80;99.90;;;;;;5007108;28;20069;-76
2022/11/12 12:17:08;;;;;;;14.38;11.45;;;12.80;99.90;;;;;;5003959;28;20041;-77
2022/11/12 12:19:45;;;;;;;;;;;12.90;99.90;;;;;;5006877;28;20044;-77
2022/11/12 12:22:23;;;;;;;16.00;11.25;;;12.80;99.90;;;;;;4996365;28;20011;-76
2022/11/12 12:25:00;;;;;;;15.00;11.05;;;12.90;99.90;;;;;;5006272;28;21038;-79
2022/11/12 12:27:37;;;;;;;13.80;11.25;;;13.00;99.90;;;;;;5003080;28;20053;-78
2022/11/12 12:30:14;;;;;;;14.30;11.98;;;13.00;99.90;;;;;;4994172;28;20095;-77
2022/11/12 12:32:49;;;;;;;18.10;11.75;;;13.00;99.90;;;;;;5003098;28;20029;-76
2022/11/12 12:35:29;;;;;;;14.98;11.18;;;13.00;99.90;;;;;;5001441;28;20038;-77
2022/11/12 12:38:10;;;;;;;17.23;11.63;;;13.10;99.90;;;;;;4992651;28;20044;-77
2022/11/12 12:40:45;;;;;;;15.30;12.07;;;13.10;99.90;;;;;;5006230;28;20080;-77
2022/11/12 12:43:27;;;;;;;15.75;11.90;;;13.20;99.90;;;;;;5003160;28;20067;-67
2022/11/12 12:45:56;;;;;;;16.67;12.07;;;13.30;99.90;;;;;;5002550;28;20207;-80
2022/11/12 12:48:30;;;;;;;14.13;10.90;;;13.30;99.90;;;;;;5002240;28;20457;-79
2022/11/12 12:50:56;;;;;;;14.95;11.85;;;13.40;99.90;;;;;;5006711;28;20037;-74
2022/11/12 12:53:24;;;;;;;17.02;13.43;;;13.40;99.90;;;;;;5000216;28;20025;-77
2022/11/12 12:55:52;;;;;;;16.20;12.75;;;13.40;99.90;;;;;;4984427;28;20049;-75
2022/11/12 12:58:43;;;;;;;19.45;15.27;;;13.50;99.90;;;;;;4999230;28;20036;-76
2022/11/12 13:01:21;;;;;;;21.42;15.75;;;13.50;99.90;;;;;;4989271;28;20144;-78
2022/11/12 13:03:56;;;;;;;16.35;11.88;;;13.60;99.90;;;;;;5001812;28;20096;-74
2022/11/12 13:06:21;;;;;;;17.00;12.00;;;13.60;99.90;;;;;;4997712;28;20051;-74
2022/11/12 13:08:56;;;;;;;15.40;13.57;;;13.60;99.90;;;;;;4993823;28;20045;-74
2022/11/12 13:14:30;;;;;;;;;;;13.60;99.90;;;;;;4996872;28;20785;-74
2022/11/12 13:17:02;;;;;;;15.38;10.77;;;13.60;99.90;;;;;;4996814;28;19925;-69
2022/11/12 13:19:28;;;;;;;;;;;13.60;99.90;;;;;;4977217;28;20041;-75